Time;durP1;ratioP1;P1;durP2;ratioP2;P2;SDS_P1;SDS_P2;PMS_P1;PMS_P2;Temp;Humidity;BMP_temperature;BMP_pressure;BME280_temperature;BME280_humidity;BME280_pressure;Samples;Min_cycle;Max_cycle;Signal;HPM_P1;HPM_P2
2022/08/26 00:00:38;;;;;;;;;5.00;5.00;;;;;21.63;65.82;101073.72;5066051;28;45330;-63
2022/08/26 00:03:04;;;;;;;;;3.00;3.00;;;;;21.63;65.18;101080.97;5076551;28;45231;-66
2022/08/26 00:05:29;;;;;;;;;10.00;8.33;;;;;21.67;66.19;101085.94;5071043;28;46146;-69
2022/08/26 00:07:56;;;;;;;;;3.00;3.00;;;;;21.67;65.94;101085.94;5055921;28;46281;-64
2022/08/26 00:10:21;;;;;;;;;3.33;3.33;;;;;21.60;65.71;101079.41;5056383;28;45375;-61
2022/08/26 00:12:47;;;;;;;;;4.00;4.00;;;;;21.67;66.02;101085.09;5056279;28;45324;-61
2022/08/26 00:15:16;;;;;;;;;4.00;4.00;;;;;21.63;66.42;101076.41;5074364;28;45620;-62
2022/08/26 00:17:42;;;;;;;;;3.00;3.00;;;;;21.64;66.04;101085.41;5057560;28;46276;-64
2022/08/26 00:20:10;;;;;;;;;5.00;5.00;;;;;21.62;66.24;101085.53;5055513;28;45401;-60
2022/08/26 00:22:36;;;;;;;;;4.00;4.00;;;;;21.50;66.53;101084.00;5056992;28;45426;-61
2022/08/26 00:25:02;;;;;;;;;4.33;4.33;;;;;21.52;66.24;101087.41;5076010;28;45310;-61
2022/08/26 00:27:27;;;;;;;;;7.00;5.00;;;;;21.60;66.07;101084.81;5074410;28;45925;-61
2022/08/26 00:29:53;;;;;;;;;5.33;5.00;;;;;21.58;66.10;101096.78;5075833;28;45682;-60
2022/08/26 00:32:18;;;;;;;;;3.33;3.33;;;;;21.59;65.63;101093.94;5056363;28;45460;-61
2022/08/26 00:34:44;;;;;;;;;3.33;3.33;;;;;21.51;66.81;101096.53;5056481;28;45763;-66
2022/08/26 00:37:09;;;;;;;;;4.33;4.33;;;;;21.48;66.96;101091.38;5066408;28;45863;-60
2022/08/26 00:39:35;;;;;;;;;6.00;6.00;;;;;21.48;67.08;101096.78;5078597;28;45385;-62
2022/08/26 00:42:00;;;;;;;;;5.00;5.00;;;;;21.48;66.95;101092.25;5069827;28;45386;-63
2022/08/26 00:44:25;;;;;;;;;6.33;6.33;;;;;21.45;67.65;101097.09;5059902;28;45418;-62
2022/08/26 00:46:57;;;;;;;;;6.33;5.33;;;;;21.38;67.65;101096.81;5068086;28;46112;-62
2022/08/26 00:49:41;;;;;;;;;7.00;6.00;;;;;21.43;67.45;101101.78;5080074;28;45177;-67
2022/08/26 00:52:17;;;;;;;;;4.33;4.33;;;;;21.37;67.53;101095.13;5058391;28;45170;-67
2022/08/26 00:54:50;;;;;;;;;5.33;4.33;;;;;21.27;67.72;101082.59;5074231;28;45375;-70
2022/08/26 00:57:18;;;;;;;;;4.00;4.00;;;;;21.34;67.93;101100.78;5057259;28;46177;-68
2022/08/26 00:59:48;;;;;;;;;6.33;5.33;;;;;21.32;68.01;101091.09;5079014;27;45221;-63
2022/08/26 01:02:13;;;;;;;;;5.33;5.33;;;;;21.29;67.57;101091.41;5067488;28;45312;-61
2022/08/26 01:04:40;;;;;;;;;6.33;4.33;;;;;21.31;67.82;101097.53;5058820;28;45218;-62
2022/08/26 01:07:06;;;;;;;;;6.00;6.00;;;;;21.26;68.26;101097.97;5071955;27;47261;-64
2022/08/26 01:09:32;;;;;;;;;5.33;5.33;;;;;21.25;68.49;101107.06;5078368;28;45344;-67
2022/08/26 01:12:00;;;;;;;;;5.00;5.00;;;;;21.27;68.18;101105.06;5059139;27;45535;-67
2022/08/26 01:14:30;;;;;;;;;8.00;6.67;;;;;21.22;68.42;101096.47;5058313;28;45321;-63
2022/08/26 01:16:56;;;;;;;;;7.33;7.00;;;;;21.21;68.76;101101.03;5070575;27;47237;-62
2022/08/26 01:19:27;;;;;;;;;7.33;6.00;;;;;21.17;68.33;101093.38;5078988;28;45405;-71
2022/08/26 01:22:29;;;;;;;;;6.33;6.33;;;;;21.17;68.84;101099.63;5077709;28;45377;-69
2022/08/26 01:24:59;;;;;;;;;7.67;6.00;;;;;21.16;68.77;101092.50;5052730;28;45806;-70
2022/08/26 01:27:29;;;;;;;;;10.00;9.33;;;;;21.00;69.53;101081.41;5059442;28;47395;-67
2022/08/26 01:29:56;;;;;;;;;6.00;6.00;;;;;21.07;68.71;101087.09;5057577;28;46035;-66
2022/08/26 01:32:24;;;;;;;;;5.00;5.00;;;;;21.08;68.96;101084.25;5058904;28;45406;-68
2022/08/26 01:34:51;;;;;;;;;6.00;6.00;;;;;21.06;69.09;101086.25;5058684;28;45205;-64
2022/08/26 01:37:26;;;;;;;;;6.00;6.00;;;;;21.11;68.17;101089.38;5057451;28;46696;-68
2022/08/26 01:39:54;;;;;;;;;8.00;8.00;;;;;21.12;69.07;101101.06;5057455;28;45394;-65
2022/08/26 01:42:22;;;;;;;;;8.33;8.33;;;;;21.07;69.17;101096.06;5058038;28;45337;-69
2022/08/26 01:45:04;;;;;;;;;10.33;10.33;;;;;20.99;69.20;101090.53;5057758;28;45511;-67
2022/08/26 01:47:32;;;;;;;;;8.00;8.00;;;;;21.04;69.69;101104.47;5062972;28;45394;-70
2022/08/26 01:50:01;;;;;;;;;8.33;8.33;;;;;21.02;69.79;101097.50;5074927;28;45508;-62
2022/08/26 01:52:30;;;;;;;;;9.00;9.00;;;;;21.00;69.98;101100.34;5076584;28;45466;-67
2022/08/26 01:54:57;;;;;;;;;5.67;5.67;;;;;21.06;69.33;101090.78;5060342;28;45425;-67
2022/08/26 01:57:25;;;;;;;;;8.33;8.00;;;;;21.06;68.86;101096.19;5076829;27;45414;-60
2022/08/26 01:59:54;;;;;;;;;9.00;8.67;;;;;21.02;69.45;101101.03;5077846;28;45167;-59
2022/08/26 02:02:19;;;;;;;;;13.00;10.67;;;;;20.98;69.92;101106.88;5048753;28;45464;-65
2022/08/26 02:04:53;;;;;;;;;9.00;8.00;;;;;20.90;69.92;101104.88;5071803;27;45593;-64
2022/08/26 02:07:20;;;;;;;;;10.00;8.67;;;;;20.92;70.01;101101.03;5073853;28;45414;-67
2022/08/26 02:09:46;;;;;;;;;11.67;9.67;;;;;20.93;70.00;101107.28;5069055;28;45410;-66
2022/08/26 02:12:15;;;;;;;;;14.67;12.00;;;;;20.92;70.17;101111.00;5077590;28;45503;-67
2022/08/26 02:14:49;;;;;;;;;14.67;12.00;;;;;20.85;70.36;101113.41;5076588;27;45262;-69
2022/08/26 02:17:16;;;;;;;;;10.00;9.67;;;;;20.83;70.19;101110.00;5077357;28;46115;-67
2022/08/26 02:19:47;;;;;;;;;13.00;9.67;;;;;20.77;70.81;101118.66;5041236;28;45832;-66
2022/08/26 02:22:17;;;;;;;;;11.67;11.00;;;;;20.72;70.84;101125.47;5065822;28;45459;-68
2022/08/26 02:24:58;;;;;;;;;13.67;11.67;;;;;20.72;71.34;101117.38;5060872;28;45330;-65
2022/08/26 02:27:27;;;;;;;;;11.33;10.67;;;;;20.64;71.17;101112.66;5058464;28;45417;-67
2022/08/26 02:30:05;;;;;;;;;12.33;11.00;;;;;20.69;71.18;101115.78;5058758;28;45368;-64
2022/08/26 02:32:31;;;;;;;;;13.00;13.00;;;;;20.66;71.39;101118.75;5071730;28;45430;-65
2022/08/26 02:34:56;;;;;;;;;12.33;12.33;;;;;20.68;71.04;101114.06;5056926;28;45541;-59
2022/08/26 02:37:22;;;;;;;;;14.67;13.00;;;;;20.67;71.31;101115.06;5077754;27;45342;-64
2022/08/26 02:39:47;;;;;;;;;12.67;12.67;;;;;20.63;71.39;101115.50;5071188;28;45423;-64
2022/08/26 02:42:13;;;;;;;;;14.00;13.00;;;;;20.59;70.91;101118.47;5057278;28;45418;-60
2022/08/26 02:44:38;;;;;;;;;14.33;13.33;;;;;20.54;71.18;101107.19;5060507;28;45512;-63
2022/08/26 02:47:05;;;;;;;;;15.33;14.00;;;;;20.56;71.25;101116.03;5077166;28;46034;-66
2022/08/26 02:49:31;;;;;;;;;14.00;12.67;;;;;20.57;71.18;101112.34;5072690;28;45425;-61
2022/08/26 02:51:59;;;;;;;;;14.33;11.33;;;;;20.56;71.69;101116.03;5071163;27;45360;-62
2022/08/26 02:54:25;;;;;;;;;16.67;15.00;;;;;20.54;71.65;101115.31;5056879;28;45486;-60
2022/08/26 02:56:50;;;;;;;;;14.00;12.67;;;;;20.54;71.63;101111.75;5056183;28;46102;-62
2022/08/26 02:59:16;;;;;;;;;14.67;14.33;;;;;20.43;71.83;101104.59;5063871;28;45344;-63
2022/08/26 03:01:43;;;;;;;;;15.67;15.00;;;;;20.45;71.78;101118.84;5076782;28;45398;-60
2022/08/26 03:04:10;;;;;;;;;17.00;16.33;;;;;20.42;72.04;101111.00;5069775;28;45372;-60
2022/08/26 03:06:36;;;;;;;;;14.33;14.33;;;;;20.41;72.29;101117.38;5074502;28;46366;-66
2022/08/26 03:09:03;;;;;;;;;17.00;16.67;;;;;20.42;71.91;101108.31;5057834;28;45476;-62
2022/08/26 03:11:29;;;;;;;;;16.33;15.00;;;;;20.42;72.30;101113.69;5058164;28;45270;-68
2022/08/26 03:13:55;;;;;;;;;16.67;15.67;;;;;20.38;72.50;101111.38;5056555;28;45494;-68
2022/08/26 03:16:20;;;;;;;;;15.67;15.00;;;;;20.36;71.83;101108.81;5065883;28;46164;-67
2022/08/26 03:18:46;;;;;;;;;18.67;16.00;;;;;20.39;72.20;101113.94;5073700;28;45714;-62
2022/08/26 03:21:14;;;;;;;;;23.67;21.00;;;;;20.36;72.89;101111.53;5075265;28;45568;-67
2022/08/26 03:23:41;;;;;;;;;19.00;16.67;;;;;20.17;73.22;101100.63;5056207;28;45557;-66
2022/08/26 03:26:08;;;;;;;;;22.67;18.67;;;;;20.25;73.08;101117.88;5069477;28;45757;-67
2022/08/26 03:28:34;;;;;;;;;16.00;16.00;;;;;20.20;73.38;101103.09;5058204;28;45437;-66
2022/08/26 03:30:59;;;;;;;;;18.00;18.00;;;;;20.20;73.85;101109.34;5062758;28;45801;-67
2022/08/26 03:33:25;;;;;;;;;17.67;15.00;;;;;20.20;72.66;101103.09;5038854;28;45748;-67
2022/08/26 03:35:51;;;;;;;;;21.33;16.67;;;;;20.24;73.47;101109.91;5066986;28;47144;-63
2022/08/26 03:38:19;;;;;;;;;24.67;19.67;;;;;20.16;73.89;101096.22;5076249;28;45951;-64
2022/08/26 03:40:45;;;;;;;;;18.67;18.67;;;;;20.21;73.96;101102.09;5044143;28;45371;-62
2022/08/26 03:43:13;;;;;;;;;21.00;18.33;;;;;20.18;73.80;101108.63;5076537;28;45215;-67
2022/08/26 03:45:39;;;;;;;;;20.67;16.33;;;;;20.19;73.88;101104.06;5056033;28;45753;-62
2022/08/26 03:48:04;;;;;;;;;15.67;15.67;;;;;20.25;73.54;101100.81;5055493;28;45434;-62
2022/08/26 03:50:30;;;;;;;;;17.67;16.67;;;;;20.22;74.11;101106.50;5055510;28;45486;-61
2022/08/26 03:52:55;;;;;;;;;18.00;17.00;;;;;20.20;72.96;101097.69;5055758;28;45573;-62
2022/08/26 03:55:24;;;;;;;;;23.00;18.33;;;;;20.26;73.72;101105.22;5066131;28;45386;-63
2022/08/26 03:57:51;;;;;;;;;24.67;19.00;;;;;20.30;73.69;101112.91;5060615;28;45435;-67
2022/08/26 04:00:17;;;;;;;;;24.67;22.33;;;;;20.23;73.78;101100.09;5076369;28;45448;-68
2022/08/26 04:02:44;;;;;;;;;21.33;20.00;;;;;20.28;73.51;101108.66;5060053;28;45529;-68
2022/08/26 04:05:12;;;;;;;;;21.67;19.00;;;;;20.23;73.43;101108.22;5055617;28;46303;-65
2022/08/26 04:07:38;;;;;;;;;17.00;15.67;;;;;20.30;72.73;101106.66;5055924;28;45405;-62
2022/08/26 04:10:04;;;;;;;;;19.67;16.33;;;;;20.28;73.50;101111.34;5057340;28;45362;-63
2022/08/26 04:12:29;;;;;;;;;25.00;19.33;;;;;20.22;73.71;101106.50;5063972;28;45560;-63
2022/08/26 04:14:55;;;;;;;;;21.00;19.67;;;;;20.20;73.25;101108.47;5057917;28;45528;-63
2022/08/26 04:17:20;;;;;;;;;19.33;17.67;;;;;20.20;73.61;101106.63;5041056;28;45257;-65
2022/08/26 04:19:46;;;;;;;;;23.67;22.67;;;;;20.16;73.97;101098.91;5057596;28;45346;-64
2022/08/26 04:22:11;;;;;;;;;22.33;19.67;;;;;20.21;73.99;101110.19;5067604;27;45300;-62
2022/08/26 04:24:38;;;;;;;;;16.00;14.67;;;;;20.20;73.71;101109.34;5076724;27;45733;-66
2022/08/26 04:27:04;;;;;;;;;20.00;17.00;;;;;20.22;73.56;101099.25;5079510;28;45342;-65
2022/08/26 04:29:30;;;;;;;;;19.00;19.00;;;;;20.33;73.25;101117.22;5077566;28;45362;-68
2022/08/26 04:31:56;;;;;;;;;23.33;20.33;;;;;20.35;73.16;101117.94;5061656;28;45869;-66
2022/08/26 04:34:23;;;;;;;;;18.33;18.33;;;;;20.36;71.77;101119.63;5060055;28;45504;-61
2022/08/26 04:36:50;;;;;;;;;18.00;17.00;;;;;20.33;72.20;101114.50;5058319;28;45397;-61
2022/08/26 04:39:16;;;;;;;;;24.33;20.00;;;;;20.33;73.15;101119.91;5058423;28;45235;-64
2022/08/26 04:41:47;;;;;;;;;29.67;20.33;;;;;20.17;73.60;101111.44;5059037;28;45217;-62
2022/08/26 04:44:13;;;;;;;;;17.00;17.00;;;;;20.25;73.01;101117.03;5074247;27;45444;-62
2022/08/26 04:46:39;;;;;;;;;19.00;19.00;;;;;20.28;73.37;101131.09;5070995;28;45441;-59
2022/08/26 04:49:07;;;;;;;;;20.67;20.67;;;;;20.23;73.44;101132.50;5074343;28;45292;-61
2022/08/26 04:51:34;;;;;;;;;22.33;21.00;;;;;20.31;72.93;101127.28;5069935;28;45404;-59
2022/08/26 04:53:59;;;;;;;;;22.33;20.67;;;;;20.31;73.33;101132.66;5078818;27;45390;-63
2022/08/26 04:56:29;;;;;;;;;22.00;19.00;;;;;20.33;73.20;101133.41;5077278;28;45390;-65
2022/08/26 04:58:55;;;;;;;;;23.00;19.33;;;;;20.27;73.72;101134.81;5077659;28;45806;-72
2022/08/26 05:01:21;;;;;;;;;22.67;21.67;;;;;20.25;73.93;101135.94;5069159;28;45226;-67
2022/08/26 05:03:47;;;;;;;;;23.67;21.33;;;;;20.23;73.50;101122.56;5078178;28;45332;-64
2022/08/26 05:06:14;;;;;;;;;21.00;19.00;;;;;20.30;73.11;101130.97;5060516;27;45477;-65
2022/08/26 05:08:39;;;;;;;;;17.00;15.33;;;;;20.36;73.55;101143.09;5058988;28;45391;-71
2022/08/26 05:11:06;;;;;;;;;17.00;17.00;;;;;20.36;72.82;101129.59;5058582;28;45637;-67
2022/08/26 05:13:33;;;;;;;;;21.00;18.00;;;;;20.38;72.93;101133.00;5064303;28;46227;-67
2022/08/26 05:16:03;;;;;;;;;22.67;20.00;;;;;20.36;73.38;101140.38;5068214;28;45878;-63
2022/08/26 05:18:30;;;;;;;;;24.33;24.33;;;;;20.45;73.08;101148.56;5079021;28;45477;-62
2022/08/26 05:20:56;;;;;;;;;26.00;20.00;;;;;20.45;72.68;101145.03;5070219;28;45476;-61
2022/08/26 05:23:23;;;;;;;;;24.67;18.67;;;;;20.51;72.49;101141.75;5075402;27;45508;-65
2022/08/26 05:25:50;;;;;;;;;23.00;19.33;;;;;20.55;72.57;101152.16;5076569;28;45374;-67
2022/08/26 05:28:17;;;;;;;;;22.67;19.67;;;;;20.42;72.92;101148.81;5060643;27;45381;-65
2022/08/26 05:30:44;;;;;;;;;22.67;18.00;;;;;20.50;72.86;101161.66;5065985;28;45631;-66
2022/08/26 05:33:10;;;;;;;;;23.00;21.33;;;;;20.47;72.77;101162.81;5074331;28;45420;-63
2022/08/26 05:35:37;;;;;;;;;18.00;15.00;;;;;20.52;72.30;101168.63;5059020;28;45559;-66
2022/08/26 05:38:10;;;;;;;;;23.33;22.00;;;;;20.58;72.57;101168.13;5078170;27;45358;-66
2022/08/26 05:40:39;;;;;;;;;25.67;22.67;;;;;20.60;72.37;101174.22;5069711;28;45604;-65
2022/08/26 05:43:09;;;;;;;;;23.00;21.00;;;;;20.59;72.10;101177.06;5057876;28;46655;-66
2022/08/26 05:45:38;;;;;;;;;24.00;22.67;;;;;20.61;72.31;101167.84;5060750;27;45578;-63
2022/08/26 05:48:06;;;;;;;;;25.00;19.67;;;;;20.52;72.43;101174.03;5058172;28;45398;-67
2022/08/26 05:50:39;;;;;;;;;20.33;20.00;;;;;20.42;73.10;101173.13;5056805;28;45623;-64
2022/08/26 05:53:07;;;;;;;;;28.33;24.33;;;;;20.49;72.34;101181.56;5057071;28;45541;-61
2022/08/26 05:55:33;;;;;;;;;21.00;20.00;;;;;20.49;72.90;101179.72;5072336;28;45255;-63
2022/08/26 05:57:58;;;;;;;;;25.00;24.00;;;;;20.50;72.73;101188.69;5063400;28;45409;-66
2022/08/26 06:00:27;;;;;;;;;26.33;25.00;;;;;20.54;72.71;101177.47;5073901;28;45613;-67
2022/08/26 06:02:52;;;;;;;;;19.33;18.67;;;;;20.53;72.11;101175.75;5039604;28;46772;-69
2022/08/26 06:05:18;;;;;;;;;23.33;22.33;;;;;20.59;72.06;101188.75;5056546;28;45389;-65
2022/08/26 06:10:27;;;;;;;;;25.67;23.33;;;;;20.55;72.21;101187.28;5057791;28;45505;-61
2022/08/26 06:12:53;;;;;;;;;23.33;19.67;;;;;20.53;72.19;101186.56;5056908;28;46418;-69
2022/08/26 06:15:18;;;;;;;;;19.33;18.33;;;;;20.49;72.58;101187.84;5057251;28;45489;-66
2022/08/26 06:17:44;;;;;;;;;24.00;18.00;;;;;20.42;72.58;101185.78;5074591;28;45334;-61
2022/08/26 06:20:09;;;;;;;;;17.67;17.33;;;;;20.43;72.48;101188.34;5077459;27;45259;-64
2022/08/26 06:25:37;;;;;;;;;21.00;21.00;;;;;20.48;72.23;101182.56;5070901;27;45425;-61
2022/08/26 06:28:04;;;;;;;;;21.33;18.67;;;;;20.44;71.69;101163.03;5065167;28;45425;-65
2022/08/26 06:30:29;;;;;;;;;20.00;18.67;;;;;20.55;71.37;101183.72;5042937;27;45466;-61
2022/08/26 06:32:55;;;;;;;;;20.67;19.00;;;;;20.54;71.29;101176.59;5064173;27;46207;-62
2022/08/26 06:35:20;;;;;;;;;13.00;13.00;;;;;20.51;70.93;101175.03;5056739;28;45678;-61
2022/08/26 06:37:46;;;;;;;;;21.00;18.67;;;;;20.51;70.89;101180.44;5058509;28;45396;-63
2022/08/26 06:40:11;;;;;;;;;16.33;15.33;;;;;20.52;70.53;101175.88;5052302;28;45690;-60
2022/08/26 06:42:36;;;;;;;;;17.00;16.00;;;;;20.55;70.55;101181.88;5056710;28;45410;-62
2022/08/26 06:45:03;;;;;;;;;19.00;16.67;;;;;20.54;70.32;101182.88;5055990;28;45264;-62
2022/08/26 06:47:28;;;;;;;;;22.00;20.67;;;;;20.59;70.11;101175.22;5056018;27;45276;-63
2022/08/26 06:49:54;;;;;;;;;16.67;15.00;;;;;20.67;70.05;101181.78;5065656;27;46002;-64
2022/08/26 06:52:19;;;;;;;;;18.00;16.00;;;;;20.71;69.76;101183.22;5039080;28;46935;-61
2022/08/26 06:54:44;;;;;;;;;26.00;20.33;;;;;20.78;69.53;101178.97;5058732;28;45470;-62
2022/08/26 06:57:11;;;;;;;;;14.00;14.00;;;;;20.81;69.45;101186.81;5067785;28;45390;-62
2022/08/26 06:59:37;;;;;;;;;16.00;15.67;;;;;20.91;69.19;101188.53;5058233;28;45669;-60
2022/08/26 07:02:04;;;;;;;;;18.67;16.67;;;;;20.88;68.52;101179.88;5073716;27;45407;-62
2022/08/26 07:04:31;;;;;;;;;17.00;15.00;;;;;20.83;68.72;101188.41;5056012;28;45532;-61
2022/08/26 07:06:56;;;;;;;;;24.00;20.00;;;;;20.91;68.88;101190.41;5055548;28;45216;-60
2022/08/26 07:09:25;;;;;;;;;20.00;18.00;;;;;20.91;68.65;101175.03;5067516;28;45850;-68
2022/08/26 07:11:51;;;;;;;;;21.33;18.00;;;;;21.07;68.33;101185.31;5038926;28;45574;-65
2022/08/26 07:14:17;;;;;;;;;18.33;17.33;;;;;21.19;68.13;101176.06;5055154;28;45531;-64
2022/08/26 07:16:43;;;;;;;;;22.00;18.33;;;;;21.27;67.63;101193.50;5056192;28;45503;-56
2022/08/26 07:19:09;;;;;;;;;20.00;18.33;;;;;21.21;67.36;101175.94;5038208;28;45413;-56
2022/08/26 07:21:35;;;;;;;;;23.00;21.00;;;;;21.24;67.28;101186.50;5041960;28;46906;-57
2022/08/26 07:24:00;;;;;;;;;25.00;22.33;;;;;21.32;66.58;101178.53;5059685;28;45321;-57
2022/08/26 07:26:28;;;;;;;;;21.33;19.00;;;;;21.37;66.36;101186.25;5075634;28;45730;-58
2022/08/26 07:28:55;;;;;;;;;17.33;16.00;;;;;21.32;66.04;101178.53;5069735;28;45592;-58
2022/08/26 07:31:23;;;;;;;;;21.33;20.00;;;;;21.45;65.58;101172.84;5074477;28;46449;-58
2022/08/26 07:33:48;;;;;;;;;15.33;14.33;;;;;21.65;65.12;101179.97;5055944;28;45403;-57
2022/08/26 07:36:16;;;;;;;;;18.00;13.67;;;;;21.74;64.99;101191.78;5056019;28;45292;-54
2022/08/26 07:38:43;;;;;;;;;26.67;23.33;;;;;21.83;64.48;101181.97;5037796;28;45463;-56
2022/08/26 07:41:09;;;;;;;;;19.00;18.00;;;;;21.91;64.13;101188.38;5067184;27;46261;-56
2022/08/26 07:43:36;;;;;;;;;19.67;19.00;;;;;21.96;63.81;101185.22;5061465;28;45568;-57
2022/08/26 07:46:02;;;;;;;;;21.00;17.33;;;;;21.98;63.38;101180.50;5065528;28;46064;-54
2022/08/26 07:48:28;;;;;;;;;16.00;16.00;;;;;22.07;63.11;101185.94;5067012;28;46722;-56
2022/08/26 07:50:54;;;;;;;;;17.00;15.33;;;;;22.16;62.74;101184.22;5051531;28;46073;-56
2022/08/26 07:53:20;;;;;;;;;12.67;12.67;;;;;22.15;62.79;101193.34;5059403;27;45369;-57
2022/08/26 07:55:47;;;;;;;;;12.00;12.00;;;;;22.11;62.82;101191.91;5065498;28;45442;-55
2022/08/26 07:58:13;;;;;;;;;17.67;16.33;;;;;22.16;62.30;101178.81;5058531;28;45506;-56
2022/08/26 08:00:38;;;;;;;;;15.33;13.67;;;;;22.27;62.54;101186.75;5057421;28;45561;-55
2022/08/26 08:03:05;;;;;;;;;14.00;14.00;;;;;22.28;61.91;101183.03;5054555;27;45447;-55
2022/08/26 08:05:31;;;;;;;;;13.33;13.33;;;;;22.41;61.96;101181.88;5068739;27;45466;-48
2022/08/26 08:08:02;;;;;;;;;13.00;13.00;;;;;22.49;62.24;101184.66;5063126;28;45339;-57
2022/08/26 08:10:28;;;;;;;;;13.33;12.00;;;;;22.56;61.89;101186.66;5063966;28;46308;-56
2022/08/26 08:12:55;;;;;;;;;16.67;16.67;;;;;22.56;61.12;101183.09;5074533;27;45253;-59
2022/08/26 08:15:25;;;;;;;;;17.00;17.00;;;;;22.56;60.57;101191.22;5084731;27;45488;-64
2022/08/26 08:17:50;;;;;;;;;18.33;15.67;;;;;22.58;60.89;101191.91;5095843;27;45436;-58
2022/08/26 08:20:16;;;;;;;;;12.67;11.33;;;;;22.51;60.47;101180.81;5082793;27;45296;-63
2022/08/26 08:22:42;;;;;;;;;16.00;12.67;;;;;22.61;61.36;101186.19;5091037;27;45277;-64
2022/08/26 08:25:08;;;;;;;;;13.00;13.00;;;;;22.77;60.65;101183.69;5070228;28;45439;-60
2022/08/26 08:27:35;;;;;;;;;13.00;11.33;;;;;22.92;59.65;101192.22;5069924;28;45464;-58
2022/08/26 08:30:02;;;;;;;;;15.67;15.67;;;;;22.87;59.36;101172.81;5071226;27;45497;-62
2022/08/26 08:32:28;;;;;;;;;14.00;13.67;;;;;23.08;59.30;101175.28;5035931;28;45513;-61
2022/08/26 08:34:54;;;;;;;;;28.00;18.33;;;;;23.12;59.42;101171.25;5070254;27;45531;-62
2022/08/26 08:37:19;;;;;;;;;12.33;10.00;;;;;23.24;59.91;101178.16;5069148;28;45760;-64
2022/08/26 08:39:44;;;;;;;;;18.75;18.50;;;;;-142.38;100.00;62754.63;5054740;28;46395;-63
2022/08/26 08:42:28;;;;;;;;;16.00;14.67;;;;;-142.38;100.00;62754.63;5068310;27;45421;-59
2022/08/26 08:44:58;;;;;;;;;18.67;17.67;;;;;-142.38;100.00;62754.63;5055397;28;45379;-58
2022/08/26 08:47:41;;;;;;;;;14.75;14.50;;;;;-142.38;100.00;62754.63;5067730;28;45310;-60
2022/08/26 08:50:27;;;;;;;;;13.75;13.75;;;;;-142.38;100.00;62754.63;5075406;28;46546;-63
2022/08/26 08:53:10;;;;;;;;;15.00;13.75;;;;;-142.38;100.00;62754.63;5051097;28;45377;-60
2022/08/26 08:56:10;;;;;;;;;14.00;11.25;;;;;-142.38;100.00;62754.63;5060373;27;45530;-57
2022/08/26 08:58:59;;;;;;;;;11.00;10.75;;;;;-142.38;100.00;62754.63;5048900;28;45501;-57
2022/08/26 09:01:49;;;;;;;;;11.00;9.50;;;;;-142.38;100.00;62754.63;5059162;28;46512;-60
2022/08/26 09:04:34;;;;;;;;;12.20;10.00;;;;;-142.38;100.00;62754.63;5044329;28;45717;-59
2022/08/26 09:07:01;;;;;;;;;9.00;9.00;;;;;-142.38;100.00;62754.63;5078661;28;45411;-61
2022/08/26 09:09:40;;;;;;;;;8.00;8.00;;;;;-142.38;100.00;62754.63;5064585;28;45496;-60
2022/08/26 09:12:13;;;;;;;;;11.25;11.25;;;;;-142.38;100.00;62754.63;5062046;28;46244;-59
2022/08/26 09:14:40;;;;;;;;;11.20;9.40;;;;;-142.38;100.00;62754.63;5056900;28;45497;-59
2022/08/26 09:17:23;;;;;;;;;10.40;9.40;;;;;-142.38;100.00;62754.63;5079155;28;45302;-63
2022/08/26 09:19:53;;;;;;;;;9.25;9.25;;;;;-142.38;100.00;62754.63;5056563;28;45597;-58
2022/08/26 09:22:33;;;;;;;;;10.50;9.25;;;;;-142.38;100.00;62754.63;5070263;28;45410;-59
2022/08/26 09:24:58;;;;;;;;;9.00;9.00;;;;;-142.38;100.00;62754.63;5073236;27;45234;-60
2022/08/26 09:27:44;;;;;;;;;6.25;6.25;;;;;-142.38;100.00;62754.63;5060886;28;45433;-59
2022/08/26 09:30:17;;;;;;;;;9.50;9.50;;;;;-142.38;100.00;62754.63;5061172;28;45465;-62
2022/08/26 09:32:43;;;;;;;;;11.75;10.50;;;;;-142.38;100.00;62754.63;5060239;28;46722;-61
2022/08/26 09:35:30;;;;;;;;;11.50;10.00;;;;;-142.38;100.00;62754.63;5070254;28;45409;-61
2022/08/26 09:37:57;;;;;;;;;9.75;8.75;;;;;-142.38;100.00;62754.63;5058109;28;45271;-61
2022/08/26 09:40:27;;;;;;;;;31.25;20.00;;;;;-142.38;100.00;62754.63;5061143;27;45567;-63
2022/08/26 09:43:08;;;;;;;;;9.80;8.80;;;;;-142.38;100.00;62754.63;5086613;27;45475;-60
2022/08/26 09:45:34;;;;;;;;;8.00;6.60;;;;;-142.38;100.00;62754.63;5098589;27;45395;-60
2022/08/26 09:48:01;;;;;;;;;9.60;9.60;;;;;-142.38;100.00;62754.63;5064171;27;45529;-56
2022/08/26 09:50:51;;;;;;;;;8.00;7.25;;;;;-142.38;100.00;62754.63;5079712;27;45555;-61
2022/08/26 09:53:20;;;;;;;;;16.00;11.50;;;;;-142.38;100.00;62754.63;5072867;27;46283;-63
2022/08/26 09:55:48;;;;;;;;;10.40;10.40;;;;;-142.38;100.00;62754.63;5057650;28;45596;-66
2022/08/26 09:58:34;;;;;;;;;15.00;8.60;;;;;-142.38;100.00;62754.63;5068516;28;45386;-61
2022/08/26 10:01:04;;;;;;;;;10.25;10.00;;;;;-142.38;100.00;62754.63;5078102;28;45455;-61
2022/08/26 10:03:32;;;;;;;;;6.00;6.00;;;;;-142.38;100.00;62754.63;5076878;28;46210;-57
2022/08/26 10:06:04;;;;;;;;;9.60;8.60;;;;;-142.38;100.00;62754.63;5074673;28;45386;-62
2022/08/26 10:08:40;;;;;;;;;12.25;10.75;;;;;-142.38;100.00;62754.63;5068838;28;45461;-61
2022/08/26 10:11:47;;;;;;;;;13.25;10.50;;;;;-142.38;100.00;62754.63;5076050;27;45555;-61
2022/08/26 10:14:20;;;;;;;;;10.00;10.00;;;;;-142.38;100.00;62754.63;5057309;28;45422;-63
2022/08/26 10:16:50;;;;;;;;;7.00;7.00;;;;;-142.38;100.00;62754.63;5057412;28;45614;-60
2022/08/26 10:19:20;;;;;;;;;9.50;8.50;;;;;-142.38;100.00;62754.63;5058586;28;45335;-57
2022/08/26 10:21:51;;;;;;;;;11.75;9.00;;;;;-142.38;100.00;62754.63;5043432;28;45551;-59
2022/08/26 10:24:30;;;;;;;;;7.00;7.00;;;;;-142.38;100.00;62754.63;5058970;28;46730;-67
2022/08/26 10:27:09;;;;;;;;;7.80;7.00;;;;;-142.38;100.00;62754.63;5075139;27;46919;-59
2022/08/26 10:29:41;;;;;;;;;8.20;8.20;;;;;-142.38;100.00;62754.63;5057654;28;45410;-58
2022/08/26 10:32:34;;;;;;;;;11.25;8.00;;;;;-142.38;100.00;62754.63;5038472;28;45544;-60
2022/08/26 10:35:00;;;;;;;;;15.75;12.75;;;;;-142.38;100.00;62754.63;5052144;28;45613;-63
2022/08/26 10:37:36;;;;;;;;;6.40;6.40;;;;;-142.38;100.00;62754.63;5055938;28;45636;-60
2022/08/26 10:40:10;;;;;;;;;10.20;8.60;;;;;-142.38;100.00;62754.63;5056759;28;45445;-62
2022/08/26 10:42:48;;;;;;;;;5.75;5.00;;;;;-142.38;100.00;62754.63;5057129;28;45885;-60
2022/08/26 10:45:18;;;;;;;;;9.25;8.00;;;;;-142.38;100.00;62754.63;5063799;27;45431;-61
2022/08/26 10:48:07;;;;;;;;;9.00;9.00;;;;;-142.38;100.00;62754.63;5065335;27;45521;-59
2022/08/26 10:50:43;;;;;;;;;6.00;6.00;;;;;-142.38;100.00;62754.63;5056155;28;45435;-60
2022/08/26 10:53:33;;;;;;;;;10.20;8.20;;;;;-142.38;100.00;62754.63;5054677;28;46159;-59
2022/08/26 10:56:06;;;;;;;;;6.00;5.75;;;;;-142.38;100.00;62754.63;5063462;28;45496;-58
2022/08/26 10:58:56;;;;;;;;;9.00;9.00;;;;;-142.38;100.00;62754.63;5066130;27;45430;-59
2022/08/26 11:01:47;;;;;;;;;6.60;6.20;;;;;-142.38;100.00;62754.63;5074270;27;45755;-57
2022/08/26 11:04:18;;;;;;;;;6.00;6.00;;;;;-142.38;100.00;62754.63;5055774;28;45185;-50
2022/08/26 11:06:47;;;;;;;;;9.00;8.75;;;;;-142.38;100.00;62754.63;5056414;28;45359;-45
2022/08/26 11:09:45;;;;;;;;;10.00;10.00;;;;;-142.38;100.00;62754.63;5056834;28;45554;-48
2022/08/26 11:12:35;;;;;;;;;10.00;8.50;;;;;-142.38;100.00;62754.63;5069616;27;45659;-45
2022/08/26 11:15:08;;;;;;;;;8.75;8.75;;;;;-142.38;100.00;62754.63;5077382;28;45338;-46
2022/08/26 11:17:46;;;;;;;;;8.25;6.00;;;;;-142.38;100.00;62754.63;5089659;27;45452;-43
2022/08/26 11:22:34;;;;;;;;;6.00;6.00;;;;;25.55;45.41;101132.91;5131227;27;45433;-59
2022/08/26 11:25:09;;;;;;;;;7.00;7.00;;;;;25.43;45.01;101128.81;5129750;27;45562;-64
2022/08/26 11:27:34;;;;;;;;;9.00;6.50;;;;;25.47;45.02;101131.03;5120229;27;46416;-59
2022/08/26 11:30:06;;;;;;;;;5.25;5.25;;;;;25.41;45.51;101120.81;5118869;27;45381;-60